logo
Search for airport 
image banner adimage banner adimage banner ad
image banner ad

MMHC - Tehuacan

Located in Tehuacan, Mexico

ICAO - MMHC, IATA - TCN

Data provided by Airmate  

General information

Coordinates: N18°30'0" W97°25'0"
Elevation is 5509 feet MSL.
Magnetic variation is 3° East
Rated:
View ratings:
[VIEW]
View others Airports in Puebla

Operational data

Special qualification required
Current time UTC:
Current local time:
Weather at : - ( 0 km )
METAR: PPIT 161917Z AUTO 23006KT 2SM -RA BR SCT005 BKN008 OVC015 08/08 A2985 RMK AO2 VIS 1V5 RAB12 CIG 008V011 P0000 TSNO
View NOTAMs / SUP AIP / TFR affecting this airport [VIEW]
Communications frequencies: [VIEW]

Runways:

RWY identifierQFULength (ft)Width (ft)SurfaceLDA (ft)
13143°6562112ASP
31323°6562112ASP

Airport contact information

Address: Tehuacan Mexico

Satellite view of MMHC